Time;durP1;ratioP1;P1;durP2;ratioP2;P2;SDS_P1;SDS_P2;PMS_P1;PMS_P2;Temp;Humidity;BMP_temperature;BMP_pressure;BME280_temperature;BME280_humidity;BME280_pressure;Samples;Min_cycle;Max_cycle;Signal;HPM_P1;HPM_P2
2022/05/12 00:02:59;;;;;;;2.28;1.60;;;23.20;57.30;;;;;;6237073;28;20503;-84
2022/05/12 00:06:01;;;;;;;6.65;1.42;;;23.20;57.80;;;;;;6245453;28;20111;-83
2022/05/12 00:09:04;;;;;;;4.18;1.63;;;23.20;58.30;;;;;;6249606;28;20060;-84
2022/05/12 00:12:06;;;;;;;3.40;1.50;;;23.00;58.80;;;;;;6252236;28;20046;-84
2022/05/12 00:15:13;;;;;;;2.70;1.60;;;23.00;59.30;;;;;;6238044;28;20049;-83
2022/05/12 00:18:16;;;;;;;5.20;1.52;;;23.00;59.90;;;;;;6229893;28;20090;-83
2022/05/12 00:21:17;;;;;;;5.05;1.55;;;22.90;60.30;;;;;;6229367;28;20046;-83
2022/05/12 00:24:19;;;;;;;6.00;1.85;;;22.90;60.70;;;;;;6230382;28;20049;-82
2022/05/12 00:27:21;;;;;;;4.82;1.95;;;22.90;61.20;;;;;;6228867;28;20049;-83
2022/05/12 00:30:24;;;;;;;5.38;1.35;;;22.90;61.80;;;;;;6229900;28;20520;-83
2022/05/12 00:33:28;;;;;;;2.33;1.58;;;22.90;62.30;;;;;;6228840;28;20128;-82
2022/05/12 00:36:30;;;;;;;6.65;1.58;;;22.90;62.50;;;;;;6229698;28;20507;-83
2022/05/12 00:39:32;;;;;;;2.85;1.65;;;22.90;62.50;;;;;;6228558;28;20041;-83
2022/05/12 00:42:34;;;;;;;1.67;1.20;;;22.90;62.10;;;;;;6229346;28;20151;-83
2022/05/12 00:45:38;;;;;;;5.40;1.65;;;23.00;61.60;;;;;;6227767;28;20500;-83
2022/05/12 00:48:40;;;;;;;3.38;2.08;;;22.90;61.00;;;;;;6227649;28;20496;-82
2022/05/12 00:51:44;;;;;;;2.67;1.45;;;22.90;61.00;;;;;;6228329;28;20403;-83
2022/05/12 00:54:50;;;;;;;2.28;1.17;;;22.90;61.60;;;;;;6229525;28;20503;-83
2022/05/12 00:57:56;;;;;;;3.35;1.17;;;22.80;61.20;;;;;;6228750;28;20049;-83
2022/05/12 01:01:00;;;;;;;2.33;1.25;;;22.70;61.10;;;;;;6228290;28;20514;-82
2022/05/12 01:04:02;;;;;;;5.65;2.13;;;22.70;61.30;;;;;;6228407;28;20050;-82
2022/05/12 01:07:04;;;;;;;5.45;1.40;;;22.70;61.80;;;;;;6229169;28;20065;-84
2022/05/12 01:10:09;;;;;;;5.85;1.67;;;22.60;61.20;;;;;;6228311;28;20045;-84
2022/05/12 01:13:10;;;;;;;2.15;1.27;;;22.60;61.30;;;;;;6230299;28;20170;-83
2022/05/12 01:16:34;;;;;;;3.13;1.20;;;22.60;61.50;;;;;;6228204;28;20044;-85
2022/05/12 01:19:38;;;;;;;6.03;1.48;;;22.60;61.70;;;;;;6228752;28;20038;-84
2022/05/12 01:22:46;;;;;;;2.70;1.67;;;22.60;62.10;;;;;;6230225;28;20139;-84
2022/05/12 01:25:49;;;;;;;6.88;1.45;;;22.50;62.60;;;;;;6230658;28;20057;-83
2022/05/12 01:28:51;;;;;;;4.47;1.75;;;22.50;62.80;;;;;;6231215;28;20049;-84
2022/05/12 01:31:53;;;;;;;3.88;1.30;;;22.50;63.10;;;;;;6230693;28;20038;-84
2022/05/12 01:34:55;;;;;;;2.78;1.42;;;22.40;63.40;;;;;;6231289;28;20053;-84
2022/05/12 01:37:57;;;;;;;1.90;1.30;;;22.40;63.80;;;;;;6229346;28;20066;-85
2022/05/12 01:41:00;;;;;;;5.25;1.00;;;22.40;64.30;;;;;;6230486;28;20057;-83
2022/05/12 01:44:04;;;;;;;4.25;1.38;;;22.30;64.70;;;;;;6230517;28;20576;-84
2022/05/12 01:47:07;;;;;;;7.82;1.77;;;22.30;65.00;;;;;;6230850;28;20046;-84
2022/05/12 01:50:10;;;;;;;1.58;1.35;;;22.20;65.10;;;;;;6228866;28;20046;-83
2022/05/12 01:53:13;;;;;;;2.10;1.17;;;22.10;65.60;;;;;;6229234;28;20048;-84
2022/05/12 01:56:16;;;;;;;2.13;1.17;;;22.00;65.90;;;;;;6228131;28;20048;-83
2022/05/12 01:59:19;;;;;;;8.18;2.25;;;21.90;66.30;;;;;;6227644;28;20523;-82
2022/05/12 02:02:21;;;;;;;3.60;1.00;;;21.90;66.10;;;;;;6228300;28;20053;-83
2022/05/12 02:05:23;;;;;;;5.63;1.75;;;21.90;66.00;;;;;;6227004;28;20122;-82
2022/05/12 02:08:25;;;;;;;8.27;1.77;;;21.90;65.90;;;;;;6227492;28;20124;-83
2022/05/12 02:11:29;;;;;;;2.30;0.90;;;21.90;65.60;;;;;;6227427;28;20105;-82
2022/05/12 02:14:31;;;;;;;1.55;1.25;;;21.90;65.40;;;;;;6233464;28;20060;-82
2022/05/12 02:17:33;;;;;;;1.65;1.00;;;21.90;65.40;;;;;;6251324;28;20046;-84
2022/05/12 02:20:35;;;;;;;2.50;0.93;;;22.00;65.00;;;;;;6251712;28;20053;-82
2022/05/12 02:23:37;;;;;;;2.15;1.25;;;22.00;65.00;;;;;;6251344;28;20120;-83
2022/05/12 02:26:40;;;;;;;2.83;1.00;;;22.00;64.90;;;;;;6252695;28;20055;-82
2022/05/12 02:29:42;;;;;;;1.25;1.00;;;22.00;64.80;;;;;;6245261;28;20511;-82
2022/05/12 02:32:43;;;;;;;1.00;0.60;;;22.00;64.50;;;;;;6225349;28;20056;-83
2022/05/12 02:35:46;;;;;;;15.57;1.75;;;22.10;64.30;;;;;;6226237;28;20184;-82
2022/05/12 02:38:47;;;;;;;2.10;1.10;;;22.10;64.20;;;;;;6226467;28;20097;-84
2022/05/12 02:41:51;;;;;;;5.53;1.02;;;22.10;64.10;;;;;;6225572;28;20045;-83
2022/05/12 02:44:52;;;;;;;1.15;0.80;;;22.00;64.00;;;;;;6225612;28;20129;-84
2022/05/12 02:47:54;;;;;;;2.83;0.70;;;22.00;64.20;;;;;;6226121;28;20042;-84
2022/05/12 02:50:57;;;;;;;1.90;1.23;;;22.00;64.20;;;;;;6225992;28;20056;-83
2022/05/12 02:53:59;;;;;;;2.08;0.63;;;22.00;64.30;;;;;;6226492;28;20056;-83
2022/05/12 02:57:02;;;;;;;1.63;0.90;;;21.90;64.50;;;;;;6225109;28;20598;-84
2022/05/12 03:00:05;;;;;;;2.45;1.00;;;21.80;65.10;;;;;;6225923;28;20038;-83
2022/05/12 03:03:08;;;;;;;3.63;0.80;;;21.70;65.70;;;;;;6227153;28;20046;-83
2022/05/12 03:06:10;;;;;;;1.85;0.80;;;21.50;65.90;;;;;;6226728;28;20050;-83
2022/05/12 03:09:11;;;;;;;1.17;0.60;;;21.40;66.30;;;;;;6225962;28;20527;-83
2022/05/12 03:12:15;;;;;;;7.43;0.82;;;21.50;66.50;;;;;;6225695;28;20515;-84
2022/05/12 03:15:17;;;;;;;1.85;1.13;;;21.40;66.30;;;;;;6230721;28;20527;-83
2022/05/12 03:18:19;;;;;;;1.08;0.60;;;21.30;66.40;;;;;;6232914;28;20127;-84
2022/05/12 03:21:21;;;;;;;4.03;1.15;;;21.20;67.00;;;;;;6227152;28;20054;-84
2022/05/12 03:24:23;;;;;;;2.83;0.85;;;21.20;67.30;;;;;;6226533;28;20057;-83
2022/05/12 03:27:26;;;;;;;7.15;2.55;;;21.10;67.60;;;;;;6225744;28;20360;-83
2022/05/12 03:30:28;;;;;;;2.75;0.90;;;21.00;67.90;;;;;;6225873;28;20060;-82
2022/05/12 03:33:30;;;;;;;1.45;0.63;;;20.90;68.40;;;;;;6224992;28;20069;-82
2022/05/12 03:36:35;;;;;;;6.82;0.88;;;20.80;69.00;;;;;;6223482;28;20054;-82
2022/05/12 03:39:37;;;;;;;3.13;0.60;;;20.70;69.30;;;;;;6223804;28;20499;-82
2022/05/12 03:42:41;;;;;;;1.67;0.60;;;20.60;69.50;;;;;;6224620;28;20053;-81
2022/05/12 03:45:43;;;;;;;1.45;0.85;;;20.40;69.80;;;;;;6228740;28;20057;-81
2022/05/12 03:48:44;;;;;;;0.90;0.50;;;20.50;70.20;;;;;;6228876;28;20488;-82
2022/05/12 03:51:47;;;;;;;5.90;0.80;;;20.40;70.60;;;;;;6230102;28;20038;-82
2022/05/12 03:54:49;;;;;;;8.57;0.88;;;20.30;70.80;;;;;;6230373;28;20058;-82
2022/05/12 03:57:55;;;;;;;1.67;0.90;;;20.30;71.30;;;;;;6231337;28;20038;-82
2022/05/12 04:00:57;;;;;;;3.80;0.73;;;20.20;71.30;;;;;;6240978;28;20071;-82
2022/05/12 04:03:58;;;;;;;1.35;0.93;;;20.30;71.70;;;;;;6253649;28;20061;-83
2022/05/12 04:07:01;;;;;;;5.40;0.70;;;20.10;71.80;;;;;;6255806;28;20050;-82
2022/05/12 04:10:03;;;;;;;0.88;0.60;;;20.10;72.30;;;;;;6254872;28;20056;-82
2022/05/12 04:13:07;;;;;;;5.10;0.90;;;20.10;72.40;;;;;;6254879;28;20126;-82
2022/05/12 04:16:08;;;;;;;1.30;0.80;;;20.10;72.60;;;;;;6249090;28;20049;-82
2022/05/12 04:19:10;;;;;;;2.83;0.85;;;20.10;72.80;;;;;;6247171;28;20049;-81
2022/05/12 04:22:13;;;;;;;4.65;1.20;;;20.10;73.00;;;;;;6254377;28;20061;-83
2022/05/12 04:25:14;;;;;;;1.20;0.85;;;20.10;73.30;;;;;;6254594;28;20084;-82
2022/05/12 04:28:17;;;;;;;2.25;1.10;;;20.10;73.40;;;;;;6254126;28;20041;-82
2022/05/12 04:31:19;;;;;;;2.78;0.60;;;20.10;73.70;;;;;;6253129;28;20388;-82
2022/05/12 04:37:42;;;;;;;2.72;0.68;;;20.20;73.80;;;;;;6253016;28;20041;-82
2022/05/12 04:40:44;;;;;;;2.17;0.50;;;20.40;74.00;;;;;;6253997;28;20687;-82
2022/05/12 04:43:47;;;;;;;2.08;0.52;;;20.40;73.90;;;;;;6254083;28;20107;-82
2022/05/12 04:46:49;;;;;;;4.88;0.70;;;20.50;74.10;;;;;;6253716;28;20049;-82
2022/05/12 04:49:51;;;;;;;0.65;0.40;;;20.60;74.10;;;;;;6252357;28;20574;-82
2022/05/12 04:52:53;;;;;;;2.83;0.63;;;20.70;73.80;;;;;;6252934;28;20056;-82
2022/05/12 04:55:58;;;;;;;1.10;0.43;;;20.90;73.40;;;;;;6251309;28;20048;-83
2022/05/12 04:59:01;;;;;;;7.15;1.10;;;20.90;73.10;;;;;;6252052;28;20041;-82
2022/05/12 05:02:03;;;;;;;5.75;0.68;;;21.00;72.70;;;;;;6251962;28;20057;-82
2022/05/12 05:05:05;;;;;;;3.63;0.40;;;21.10;72.40;;;;;;6253560;28;20056;-83
2022/05/12 05:08:08;;;;;;;1.90;0.60;;;21.20;72.20;;;;;;6251597;28;20117;-83
2022/05/12 05:11:09;;;;;;;5.88;1.13;;;21.20;72.00;;;;;;6255202;28;20053;-82
2022/05/12 05:14:12;;;;;;;1.00;0.50;;;21.30;72.00;;;;;;6251669;28;20426;-83
2022/05/12 05:17:14;;;;;;;1.17;0.50;;;21.30;71.70;;;;;;6252654;28;20061;-82
2022/05/12 05:20:19;;;;;;;2.58;0.70;;;21.40;71.60;;;;;;6249091;28;20111;-83
2022/05/12 05:23:22;;;;;;;1.40;0.60;;;21.40;71.50;;;;;;6252292;28;20055;-82
2022/05/12 05:26:24;;;;;;;3.72;1.13;;;21.50;71.40;;;;;;6252026;28;20052;-81
2022/05/12 05:29:27;;;;;;;2.42;0.55;;;21.60;71.30;;;;;;6250733;28;20064;-82
2022/05/12 05:32:29;;;;;;;4.13;0.85;;;21.70;71.10;;;;;;6251893;28;20175;-83
2022/05/12 05:35:30;;;;;;;1.77;0.68;;;21.80;70.90;;;;;;6253991;28;20491;-82
2022/05/12 05:38:32;;;;;;;3.88;0.80;;;21.90;71.10;;;;;;6252083;28;20489;-82
2022/05/12 05:41:37;;;;;;;1.65;0.63;;;21.90;70.70;;;;;;6249616;22;20050;-85
2022/05/12 05:44:44;;;;;;;3.00;0.82;;;22.00;70.70;;;;;;6226488;28;20451;-86
2022/05/12 05:48:09;;;;;;;4.85;0.80;;;22.10;70.30;;;;;;6224547;28;20041;-85
2022/05/12 05:54:31;;;;;;;1.10;0.60;;;22.20;70.20;;;;;;6227473;28;20129;-85
2022/05/12 05:57:43;;;;;;;6.70;0.73;;;22.20;69.90;;;;;;6226136;28;20101;-85
2022/05/12 06:00:49;;;;;;;3.97;0.73;;;22.20;69.80;;;;;;6225904;28;20077;-84
2022/05/12 06:03:52;;;;;;;5.05;0.63;;;22.40;69.80;;;;;;6224251;28;20049;-84
2022/05/12 06:06:54;;;;;;;1.63;0.43;;;22.60;70.00;;;;;;6224932;28;20054;-83
2022/05/12 06:09:56;;;;;;;3.70;0.95;;;22.90;68.50;;;;;;6225607;28;20125;-84
2022/05/12 06:12:58;;;;;;;5.18;0.93;;;23.00;68.10;;;;;;6226402;28;20042;-85
2022/05/12 06:16:02;;;;;;;1.45;0.80;;;22.80;68.10;;;;;;6224588;28;20046;-84
2022/05/12 06:19:04;;;;;;;1.38;0.60;;;22.80;68.30;;;;;;6222108;28;20117;-83
2022/05/12 06:22:08;;;;;;;3.13;0.60;;;22.80;68.40;;;;;;6225434;28;20188;-85
2022/05/12 06:25:12;;;;;;;6.32;1.20;;;22.80;68.50;;;;;;6226234;28;20041;-84
2022/05/12 06:28:17;;;;;;;0.80;0.50;;;22.90;68.20;;;;;;6226028;28;20050;-85
2022/05/12 06:31:29;;;;;;;3.67;0.85;;;23.00;67.60;;;;;;6224994;28;20085;-85
2022/05/12 06:34:37;;;;;;;4.35;0.68;;;22.90;67.80;;;;;;6226567;28;20061;-84
2022/05/12 06:37:39;;;;;;;1.83;0.80;;;22.80;69.00;;;;;;6226055;28;20065;-83
2022/05/12 06:40:42;;;;;;;0.80;0.50;;;22.90;68.70;;;;;;6224619;28;20128;-84
2022/05/12 06:43:45;;;;;;;2.28;0.80;;;22.90;68.50;;;;;;6225934;28;20053;-83
2022/05/12 06:46:48;;;;;;;3.58;0.60;;;22.90;68.60;;;;;;6226796;28;20049;-85
2022/05/12 06:49:51;;;;;;;0.98;0.47;;;23.00;68.70;;;;;;6208869;28;20496;-84
2022/05/12 06:52:55;;;;;;;2.65;0.98;;;23.20;67.80;;;;;;6202039;28;20057;-84
2022/05/12 06:55:57;;;;;;;4.82;0.57;;;23.40;67.30;;;;;;6199822;28;20047;-86
2022/05/12 06:58:59;;;;;;;3.05;0.15;;;23.70;66.10;;;;;;6200251;28;20058;-83
2022/05/12 07:02:03;;;;;;;0.63;0.45;;;24.00;64.90;;;;;;6199220;28;20423;-84
2022/05/12 07:05:08;;;;;;;5.22;0.68;;;25.20;62.40;;;;;;6198711;28;20597;-84
2022/05/12 07:08:10;;;;;;;3.17;0.50;;;25.80;59.80;;;;;;6201275;28;20511;-85
2022/05/12 07:11:12;;;;;;;1.58;0.60;;;25.50;59.60;;;;;;6200871;28;20496;-85
2022/05/12 07:14:15;;;;;;;5.30;0.75;;;25.60;60.30;;;;;;6197682;28;20050;-84
2022/05/12 07:17:25;;;;;;;4.45;0.65;;;26.00;58.80;;;;;;6181265;28;20408;-84
2022/05/12 07:27:07;;;;;;;1.70;0.60;;;29.10;52.20;;;;;;6209684;28;20050;-81
2022/05/12 07:30:10;;;;;;;2.28;0.50;;;29.60;49.70;;;;;;6205940;28;20046;-81
2022/05/12 07:33:13;;;;;;;7.25;0.50;;;29.30;50.80;;;;;;6205234;28;20060;-81
2022/05/12 07:36:18;;;;;;;1.58;0.50;;;29.90;48.50;;;;;;6204524;28;20046;-86
2022/05/12 07:39:25;;;;;;;7.47;0.68;;;30.50;47.60;;;;;;6207019;28;20061;-85
2022/05/12 07:42:53;;;;;;;6.28;0.75;;;32.50;44.30;;;;;;6207169;28;20058;-86
2022/05/12 07:45:57;;;;;;;4.03;0.50;;;35.10;39.50;;;;;;6202114;28;20089;-86
2022/05/12 07:49:00;;;;;;;4.13;0.50;;;36.50;36.90;;;;;;6227199;28;20048;-86
2022/05/12 07:52:02;;;;;;;10.80;0.70;;;37.60;34.90;;;;;;6205665;28;20464;-87
2022/05/12 07:55:04;;;;;;;2.95;0.45;;;38.40;33.40;;;;;;6203716;28;20563;-86
2022/05/12 07:58:07;;;;;;;1.45;0.32;;;38.70;32.80;;;;;;6206385;28;20126;-83
2022/05/12 08:01:08;;;;;;;3.45;0.68;;;39.50;32.30;;;;;;6204208;28;20058;-85
2022/05/12 08:04:12;;;;;;;2.65;0.65;;;40.00;31.40;;;;;;6206021;28;20121;-82
2022/05/12 08:07:14;;;;;;;5.07;0.57;;;40.60;30.60;;;;;;6207009;28;20050;-84
2022/05/12 08:10:17;;;;;;;6.47;0.63;;;40.70;30.60;;;;;;6208091;28;20082;-82
2022/05/12 08:13:18;;;;;;;5.07;0.50;;;41.00;30.10;;;;;;6205431;28;20197;-85
2022/05/12 08:16:22;;;;;;;5.78;0.60;;;41.40;29.70;;;;;;6208439;28;20185;-87
2022/05/12 08:19:25;;;;;;;5.75;0.50;;;41.40;29.30;;;;;;6216503;28;20125;-87
2022/05/12 08:22:27;;;;;;;7.25;1.35;;;41.00;29.30;;;;;;6220349;28;20050;-86
2022/05/12 08:25:29;;;;;;;6.82;0.70;;;40.40;29.70;;;;;;6241334;28;20054;-82
2022/05/12 08:28:31;;;;;;;2.38;0.50;;;40.40;29.90;;;;;;6249746;28;20053;-82
2022/05/12 08:31:33;;;;;;;1.63;0.52;;;40.70;29.60;;;;;;6232449;28;20053;-85
2022/05/12 08:34:39;;;;;;;3.72;0.40;;;40.60;29.60;;;;;;6228273;28;20054;-87
2022/05/12 08:37:41;;;;;;;7.20;0.60;;;40.50;29.70;;;;;;6227085;28;20038;-85
2022/05/12 08:40:50;;;;;;;4.30;0.85;;;40.70;29.50;;;;;;6224909;28;20052;-84
2022/05/12 08:44:03;;;;;;;6.45;0.40;;;41.00;29.40;;;;;;6226933;28;20468;-86
2022/05/12 08:47:12;;;;;;;2.78;0.88;;;41.20;29.20;;;;;;6227655;28;20057;-85
2022/05/12 08:50:33;;;;;;;2.58;0.20;;;41.30;29.10;;;;;;6218153;28;20046;-86
2022/05/12 08:53:45;;;;;;;1.52;0.43;;;40.80;29.10;;;;;;6225684;28;20518;-86
2022/05/12 08:56:47;;;;;;;1.58;0.80;;;40.30;29.40;;;;;;6225549;28;20396;-86
2022/05/12 08:59:49;;;;;;;5.00;0.70;;;40.60;29.60;;;;;;6225383;28;20073;-88
2022/05/12 09:03:08;;;;;;;4.13;0.52;;;40.40;29.60;;;;;;6226576;28;20053;-88
2022/05/12 09:06:18;;;;;;;2.58;0.55;;;39.40;29.90;;;;;;6225215;28;20134;-86
2022/05/12 09:09:27;;;;;;;12.43;0.85;;;37.20;31.50;;;;;;6225276;28;20073;-87
2022/05/12 09:12:40;;;;;;;7.50;1.00;;;35.30;33.70;;;;;;6225104;28;20066;-88
2022/05/12 09:15:51;;;;;;;5.38;0.80;;;34.90;34.30;;;;;;6225934;28;20049;-87
2022/05/12 09:18:54;;;;;;;9.60;0.85;;;35.00;34.60;;;;;;6225538;28;20045;-88
2022/05/12 09:21:57;;;;;;;8.75;0.50;;;34.40;34.90;;;;;;6207208;28;20500;-87
2022/05/12 09:24:59;;;;;;;3.65;0.55;;;33.50;36.20;;;;;;6205177;28;20074;-88
2022/05/12 09:28:18;;;;;;;11.63;1.17;;;33.30;36.90;;;;;;6200525;28;20038;-88
2022/05/12 09:31:21;;;;;;;1.67;0.50;;;33.80;37.10;;;;;;6200694;28;20058;-87
2022/05/12 09:34:31;;;;;;;2.35;0.60;;;34.30;36.00;;;;;;6204103;28;20064;-87
2022/05/12 09:37:36;;;;;;;7.60;1.13;;;34.80;35.70;;;;;;6200226;28;20046;-88
2022/05/12 09:40:39;;;;;;;4.35;0.43;;;35.90;34.60;;;;;;6199803;28;20050;-88
2022/05/12 09:43:41;;;;;;;2.65;0.30;;;37.00;33.60;;;;;;6200248;28;20069;-88
2022/05/12 09:46:54;;;;;;;6.90;0.60;;;37.90;32.50;;;;;;6204548;28;20141;-88
2022/05/12 09:50:16;;;;;;;3.13;0.60;;;38.30;31.60;;;;;;6216964;28;20465;-88
2022/05/12 09:53:29;;;;;;;5.15;0.60;;;37.70;32.00;;;;;;6224611;28;20081;-89
2022/05/12 09:56:33;;;;;;;1.30;0.40;;;37.70;32.30;;;;;;6224589;28;20422;-88
2022/05/12 09:59:34;;;;;;;10.27;0.70;;;37.60;32.10;;;;;;6224462;28;20487;-88
2022/05/12 10:09:24;;;;;;;8.75;0.70;;;36.30;32.80;;;;;;6224200;28;20061;-88
2022/05/12 10:12:32;;;;;;;3.03;0.50;;;35.30;33.80;;;;;;6224260;28;20054;-88
2022/05/12 10:15:37;;;;;;;1.27;0.40;;;34.50;34.40;;;;;;6224123;28;20118;-88
2022/05/12 10:18:44;;;;;;;10.65;1.13;;;33.90;35.10;;;;;;6216142;28;20066;-87
2022/05/12 10:21:52;;;;;;;1.60;0.70;;;33.50;35.80;;;;;;6201809;28;20133;-87
2022/05/12 10:25:05;;;;;;;2.28;0.47;;;33.40;35.90;;;;;;6201670;28;20046;-88
2022/05/12 10:28:14;;;;;;;1.83;0.65;;;33.30;36.50;;;;;;6199095;28;20066;-88
2022/05/12 10:31:27;;;;;;;5.10;0.88;;;33.20;36.70;;;;;;6199003;28;20057;-88
2022/05/12 10:34:42;;;;;;;1.48;0.70;;;33.20;36.70;;;;;;6200060;28;20050;-88
2022/05/12 10:37:54;;;;;;;3.95;0.32;;;33.20;36.60;;;;;;6198771;28;20590;-88
2022/05/12 10:41:03;;;;;;;4.13;0.50;;;33.40;36.80;;;;;;6199054;28;20046;-88
2022/05/12 10:44:22;;;;;;;8.95;0.93;;;33.40;36.70;;;;;;6199187;28;20050;-88
2022/05/12 10:47:39;;;;;;;3.15;0.50;;;33.40;36.40;;;;;;6201339;28;20185;-88
2022/05/12 10:50:49;;;;;;;3.08;0.40;;;33.40;36.30;;;;;;6223603;28;20162;-87
2022/05/12 10:54:04;;;;;;;7.10;0.60;;;33.20;36.60;;;;;;6222497;28;20065;-88
2022/05/12 10:57:23;;;;;;;4.47;0.45;;;33.10;36.70;;;;;;6223266;28;20065;-87
2022/05/12 11:00:37;;;;;;;3.78;0.52;;;33.00;37.00;;;;;;6222702;28;20042;-88
2022/05/12 11:03:43;;;;;;;2.47;0.57;;;33.10;37.30;;;;;;6223654;28;20042;-87
2022/05/12 11:06:47;;;;;;;4.78;0.85;;;33.30;36.90;;;;;;6223556;28;20049;-88
2022/05/12 11:09:57;;;;;;;5.60;0.85;;;33.00;37.00;;;;;;6223133;28;20042;-87
2022/05/12 11:13:05;;;;;;;4.70;0.55;;;32.70;37.40;;;;;;6223160;28;20062;-88
2022/05/12 11:16:08;;;;;;;;;;;32.70;37.40;;;;;;6224602;28;20536;-84
2022/05/12 11:19:23;;;;;;;3.70;0.68;;;32.90;37.50;;;;;;6214920;28;19922;-87
2022/05/12 11:22:37;;;;;;;5.07;0.73;;;33.10;37.20;;;;;;6198591;28;20520;-87
2022/05/12 11:25:49;;;;;;;2.15;0.40;;;33.20;37.70;;;;;;6206358;28;20165;-89
2022/05/12 11:32:28;;;;;;;5.30;0.45;;;33.20;37.20;;;;;;6198559;28;20053;-88
2022/05/12 11:35:33;;;;;;;2.50;0.60;;;33.40;37.30;;;;;;6198998;28;20103;-85
2022/05/12 11:38:51;;;;;;;5.53;1.05;;;33.70;36.40;;;;;;6199552;28;20110;-83
2022/05/12 11:42:18;;;;;;;0.98;0.40;;;33.70;36.40;;;;;;6219629;28;20057;-84
2022/05/12 11:45:37;;;;;;;4.68;1.33;;;33.80;36.20;;;;;;6223380;28;20099;-84
2022/05/12 11:48:45;;;;;;;2.08;0.90;;;34.10;35.60;;;;;;6221869;28;20045;-84
2022/05/12 11:52:27;;;;;;;7.60;1.20;;;34.20;35.20;;;;;;6201130;28;20474;-89
2022/05/12 11:55:32;;;;;;;1.38;0.60;;;34.00;35.30;;;;;;6198467;28;20061;-84
2022/05/12 11:58:40;;;;;;;2.85;0.30;;;34.00;36.10;;;;;;6217175;28;20057;-85
2022/05/12 12:01:52;;;;;;;2.58;0.77;;;34.10;35.70;;;;;;6233245;28;20057;-85
2022/05/12 12:04:56;;;;;;;6.75;0.82;;;34.00;35.40;;;;;;6204257;28;20085;-87
2022/05/12 12:08:07;;;;;;;3.13;0.60;;;33.40;36.00;;;;;;6202177;28;20495;-86
2022/05/12 12:11:28;;;;;;;1.13;0.50;;;33.10;37.00;;;;;;6202482;28;20091;-86
2022/05/12 12:14:59;;;;;;;6.32;0.70;;;32.70;37.80;;;;;;6220501;28;20116;-87
2022/05/12 12:18:48;;;;;;;1.35;0.43;;;32.70;37.40;;;;;;6215159;28;20048;-85
2022/05/12 12:21:53;;;;;;;;;;;32.70;37.40;;;;;;6224874;28;20135;-83
2022/05/12 12:25:19;;;;;;;2.80;0.60;;;32.30;37.70;;;;;;6222073;28;19929;-85
2022/05/12 12:28:28;;;;;;;3.13;0.90;;;32.10;38.10;;;;;;6199885;28;20124;-85
2022/05/12 12:31:37;;;;;;;2.33;0.80;;;32.20;38.30;;;;;;6203396;28;20046;-84
2022/05/12 12:34:50;;;;;;;1.85;0.65;;;32.40;37.80;;;;;;6206529;28;20050;-82
2022/05/12 12:37:53;;;;;;;3.88;0.75;;;32.40;38.50;;;;;;6203040;28;20042;-84
2022/05/12 12:40:59;;;;;;;9.38;1.00;;;32.60;38.50;;;;;;6200687;28;20430;-86
2022/05/12 12:44:03;;;;;;;1.35;0.63;;;32.60;37.60;;;;;;6203261;28;20057;-81
2022/05/12 12:47:15;;;;;;;1.75;0.60;;;32.60;37.90;;;;;;6208343;28;20562;-84
2022/05/12 12:50:42;;;;;;;5.57;1.08;;;32.60;38.10;;;;;;6211166;28;20050;-82
2022/05/12 12:57:07;;;;;;;3.05;0.90;;;32.60;38.10;;;;;;6201266;28;20125;-84
2022/05/12 13:00:14;;;;;;;0.60;0.50;;;32.80;38.20;;;;;;6200835;28;20188;-84
2022/05/12 13:03:21;;;;;;;1.02;0.45;;;32.80;38.80;;;;;;6201948;28;20062;-85
2022/05/12 13:06:28;;;;;;;;;;;33.00;38.90;;;;;;6202979;28;20086;-84
2022/05/12 13:09:32;;;;;;;6.72;0.60;;;33.30;37.70;;;;;;6203902;28;20407;-87
2022/05/12 14:03:20;;;;;;;0.68;0.38;;;32.90;36.90;;;;;;5918975;30;20052;-86
2022/05/12 14:06:29;;;;;;;2.10;1.05;;;32.70;37.20;;;;;;5923378;29;20518;-88
2022/05/12 14:09:32;;;;;;;3.97;0.95;;;32.50;37.60;;;;;;6063086;29;20551;-87
2022/05/12 14:12:34;;;;;;;2.53;0.50;;;32.30;38.40;;;;;;6199686;28;20094;-86
2022/05/12 14:19:19;;;;;;;1.25;0.47;;;32.10;38.80;;;;;;6210146;28;20039;-86
2022/05/12 14:22:21;;;;;;;2.67;0.65;;;31.90;38.90;;;;;;6202095;28;20563;-85
2022/05/12 14:25:24;;;;;;;3.60;0.90;;;31.80;39.40;;;;;;6201724;28;20049;-85
2022/05/12 14:28:25;;;;;;;7.80;1.17;;;31.80;39.50;;;;;;6212537;28;20049;-85
2022/05/12 14:31:28;;;;;;;5.90;0.93;;;31.60;39.30;;;;;;6224993;28;20422;-83
2022/05/12 14:34:32;;;;;;;2.72;0.73;;;31.50;39.10;;;;;;6228904;28;20050;-84
2022/05/12 14:37:34;;;;;;;3.67;0.55;;;31.40;39.90;;;;;;6227438;28;20050;-83
2022/05/12 14:40:36;;;;;;;1.55;0.70;;;31.40;40.10;;;;;;6226277;28;20054;-84
2022/05/12 14:43:38;;;;;;;2.85;0.55;;;31.30;40.40;;;;;;6224599;28;20147;-85
2022/05/12 14:46:46;;;;;;;3.53;0.73;;;31.20;40.10;;;;;;6225694;28;20052;-84
2022/05/12 16:03:20;;;;;;;2.85;0.60;;;27.90;48.30;;;;;;6222122;28;20397;-84
2022/05/12 16:06:32;;;;;;;6.82;0.80;;;27.80;47.80;;;;;;6217137;28;20046;-85
2022/05/12 16:17:55;;;;;;;6.85;4.07;;;27.30;49.40;;;;;;6130231;29;20031;-84
2022/05/12 16:29:56;;;;;;;6.38;0.52;;;26.70;51.80;;;;;;6113499;29;20116;-84
2022/05/12 16:32:59;;;;;;;9.20;1.00;;;26.60;53.00;;;;;;6123721;29;20430;-84
2022/05/12 16:36:01;;;;;;;2.90;0.82;;;26.40;54.60;;;;;;6177532;28;20077;-84
2022/05/12 16:39:04;;;;;;;2.70;0.82;;;26.10;56.50;;;;;;6202371;28;20054;-85
2022/05/12 16:42:07;;;;;;;3.90;1.13;;;25.90;58.60;;;;;;6201443;28;20054;-86
2022/05/12 16:45:09;;;;;;;3.53;1.33;;;25.70;59.60;;;;;;6203095;28;20368;-86
2022/05/12 16:48:15;;;;;;;1.38;1.13;;;25.70;61.00;;;;;;6210495;28;20042;-86
2022/05/12 16:51:17;;;;;;;4.22;0.88;;;25.60;61.30;;;;;;6226329;28;20046;-86
2022/05/12 16:54:20;;;;;;;3.03;1.20;;;25.50;62.10;;;;;;6228287;28;20054;-85
2022/05/12 16:57:24;;;;;;;1.27;0.85;;;25.30;63.30;;;;;;6230528;28;20056;-87
2022/05/12 17:00:28;;;;;;;6.88;1.30;;;25.20;64.30;;;;;;6235801;28;20046;-85
2022/05/12 17:03:32;;;;;;;7.65;1.15;;;25.00;64.90;;;;;;6230595;28;20053;-86
2022/05/12 17:06:35;;;;;;;1.85;1.20;;;25.00;65.50;;;;;;6229865;28;20492;-85
2022/05/12 17:09:37;;;;;;;3.78;0.90;;;24.90;66.00;;;;;;6233624;28;20121;-85
2022/05/12 17:12:52;;;;;;;2.65;1.20;;;24.70;67.10;;;;;;6235347;28;20104;-85
2022/05/12 17:15:54;;;;;;;1.90;1.00;;;24.50;68.10;;;;;;6234190;28;20049;-85
2022/05/12 17:18:57;;;;;;;3.92;1.40;;;24.50;69.40;;;;;;6231267;28;20128;-87
2022/05/12 17:21:59;;;;;;;3.58;1.42;;;24.40;69.60;;;;;;6226281;28;20412;-86
2022/05/12 17:25:01;;;;;;;4.75;1.50;;;24.20;69.90;;;;;;6226590;28;20192;-85
2022/05/12 17:28:02;;;;;;;4.68;1.95;;;24.30;70.20;;;;;;6226380;28;20411;-87
2022/05/12 17:31:04;;;;;;;3.50;1.40;;;24.30;70.70;;;;;;6223156;28;20039;-85
2022/05/12 17:34:07;;;;;;;1.95;1.15;;;24.30;70.90;;;;;;6202621;28;20046;-85
2022/05/12 17:37:10;;;;;;;1.80;0.95;;;24.20;71.10;;;;;;6202631;28;20050;-84
2022/05/12 17:40:17;;;;;;;1.98;1.23;;;24.20;71.30;;;;;;6217189;23;20034;-81
2022/05/12 17:43:19;;;;;;;4.07;1.20;;;24.20;71.40;;;;;;6180597;28;20050;-80
2022/05/12 17:46:21;;;;;;;3.10;1.10;;;24.20;71.90;;;;;;6180505;28;20094;-81
2022/05/12 17:49:24;;;;;;;6.28;1.80;;;24.20;72.10;;;;;;6179328;28;20062;-81
2022/05/12 17:52:26;;;;;;;2.78;1.27;;;24.10;72.80;;;;;;6179789;28;20090;-81
2022/05/12 17:55:28;;;;;;;3.35;1.90;;;24.00;73.10;;;;;;6179482;28;20054;-81
2022/05/12 17:58:30;;;;;;;2.70;1.88;;;23.80;73.50;;;;;;6179261;28;20168;-80
2022/05/12 18:01:31;;;;;;;2.47;1.38;;;23.70;74.40;;;;;;6179926;28;20043;-81
2022/05/12 18:04:35;;;;;;;2.95;1.52;;;23.60;75.00;;;;;;6180214;28;20074;-81
2022/05/12 18:07:37;;;;;;;8.25;3.35;;;23.50;75.40;;;;;;6180366;28;20050;-80
2022/05/12 18:10:41;;;;;;;3.85;1.42;;;23.40;75.90;;;;;;6180351;28;20528;-81
2022/05/12 18:13:43;;;;;;;4.45;1.48;;;23.40;76.20;;;;;;6179950;28;20070;-82
2022/05/12 18:16:44;;;;;;;2.50;1.38;;;23.40;76.70;;;;;;6180574;28;20047;-80
2022/05/12 18:19:48;;;;;;;7.82;1.83;;;23.50;76.60;;;;;;6179156;28;20043;-81
2022/05/12 18:22:49;;;;;;;2.63;1.40;;;23.50;76.70;;;;;;6179844;28;20097;-81
2022/05/12 18:25:51;;;;;;;4.32;1.30;;;23.50;76.80;;;;;;6179495;28;20585;-80
2022/05/12 18:28:54;;;;;;;3.80;1.65;;;23.40;76.80;;;;;;6179750;28;20046;-82
2022/05/12 18:31:57;;;;;;;5.50;1.65;;;23.40;77.80;;;;;;6168412;28;20057;-82
2022/05/12 18:35:01;;;;;;;3.63;1.83;;;23.30;77.20;;;;;;6156628;29;20051;-81
2022/05/12 18:38:03;;;;;;;5.43;1.67;;;23.30;77.40;;;;;;6155199;29;20051;-80
2022/05/12 18:41:05;;;;;;;4.68;1.48;;;23.30;77.60;;;;;;6155984;29;20039;-81
2022/05/12 18:44:08;;;;;;;4.25;1.42;;;23.20;78.00;;;;;;6157189;29;20051;-81
2022/05/12 18:47:10;;;;;;;5.65;1.50;;;23.20;78.20;;;;;;6157837;28;20083;-81
2022/05/12 18:50:15;;;;;;;3.13;1.85;;;23.10;78.70;;;;;;6177539;28;20558;-80
2022/05/12 18:53:16;;;;;;;6.97;2.60;;;23.00;78.90;;;;;;6177305;28;20062;-81
2022/05/12 18:56:18;;;;;;;5.10;1.48;;;22.90;79.30;;;;;;6180207;28;20122;-83
2022/05/12 18:59:20;;;;;;;2.38;1.45;;;22.90;79.70;;;;;;6180919;28;20054;-83